Time;durP1;ratioP1;P1;durP2;ratioP2;P2;SDS_P1;SDS_P2;PMS_P1;PMS_P2;Temp;Humidity;BMP_temperature;BMP_pressure;BME280_temperature;BME280_humidity;BME280_pressure;Samples;Min_cycle;Max_cycle;Signal;HPM_P1;HPM_P2
2024/03/15 00:01:37;;;;;;;;;;;;;;;17.31;46.38;100914.31;5046025;28;902;-51
2024/03/15 00:04:03;;;;;;;;;;;;;;;16.73;47.35;100910.44;5058722;28;1207;-46
2024/03/15 00:06:29;;;;;;;;;;;;;;;15.77;47.79;100914.19;5059135;28;1119;-50
2024/03/15 00:08:56;;;;;;;;;;;;;;;15.49;47.46;100918.69;5059113;28;1083;-44
2024/03/15 00:11:22;;;;;;;;;;;;;;;15.20;46.91;100916.13;5058319;28;865;-48
2024/03/15 00:13:48;;;;;;;;;;;;;;;16.44;47.68;100919.47;5058900;28;1510;-47
2024/03/15 00:16:14;;;;;;;;;;;;;;;15.54;48.06;100907.78;5045476;28;1910;-43
2024/03/15 00:18:39;;;;;;;;;;;;;;;15.22;47.60;100905.41;5058706;28;1118;-43
2024/03/15 00:21:05;;;;;;;;;;;;;;;15.44;48.45;100910.19;5058644;28;1166;-48
2024/03/15 00:23:31;;;;;;;;;;;;;;;16.47;47.26;100913.09;5058047;28;841;-46
2024/03/15 00:25:58;;;;;;;;;;;;;;;15.54;47.67;100908.63;5058457;28;1047;-47
2024/03/15 00:28:23;;;;;;;;;;;;;;;15.18;47.37;100907.44;5058550;28;1246;-46
2024/03/15 00:30:52;;;;;;;;;;;;;;;15.72;48.27;100905.69;5058579;28;1050;-45
2024/03/15 00:33:17;;;;;;;;;;;;;;;15.36;48.10;100904.53;5058360;28;1071;-48
2024/03/15 00:35:43;;;;;;;;;;;;;;;15.12;47.60;100905.16;5058172;28;1060;-48
2024/03/15 00:38:09;;;;;;;;;;;;;;;15.04;46.91;100903.00;5058192;28;1975;-49
2024/03/15 00:40:34;;;;;;;;;;;;;;;16.40;47.00;100910.03;5057832;28;1174;-45
2024/03/15 00:43:00;;;;;;;;;;;;;;;15.39;47.69;100906.97;5058021;28;1067;-47
2024/03/15 00:45:26;;;;;;;;;;;;;;;15.01;47.73;100912.03;5057871;28;1206;-45
2024/03/15 00:47:51;;;;;;;;;;;;;;;14.86;46.75;100905.91;5057753;28;1060;-46
2024/03/15 00:50:17;;;;;;;;;;;;;;;16.24;47.52;100913.75;5057997;28;1079;-44
2024/03/15 00:52:43;;;;;;;;;;;;;;;16.10;47.68;100909.38;5057981;28;1043;-45
2024/03/15 00:55:09;;;;;;;;;;;;;;;15.23;48.43;100905.31;5057966;28;1075;-49
2024/03/15 00:57:34;;;;;;;;;;;;;;;17.21;46.40;100903.50;5057787;28;1966;-47
2024/03/15 01:00:01;;;;;;;;;;;;;;;15.83;47.82;100902.31;5058192;28;1004;-45
2024/03/15 01:02:27;;;;;;;;;;;;;;;15.38;47.56;100902.63;5057799;28;1027;-50
2024/03/15 01:04:52;;;;;;;;;;;;;;;15.21;47.00;100903.72;5058345;28;1171;-47
2024/03/15 01:07:20;;;;;;;;;;;;;;;15.78;48.46;100907.94;5057965;28;1074;-46
2024/03/15 01:09:45;;;;;;;;;;;;;;;15.73;47.96;100903.91;5057635;28;1087;-48
2024/03/15 01:12:11;;;;;;;;;;;;;;;15.26;47.97;100909.59;5057851;28;1082;-42
2024/03/15 01:14:37;;;;;;;;;;;;;;;15.04;47.08;100909.19;5057627;28;1201;-46
2024/03/15 01:17:03;;;;;;;;;;;;;;;14.99;46.21;100905.09;5057559;28;1967;-43
2024/03/15 01:19:32;;;;;;;;;;;;;;;16.63;47.28;100910.22;5057278;28;1198;-45
2024/03/15 01:21:58;;;;;;;;;;;;;;;15.43;47.84;100909.31;5056993;28;1099;-46
2024/03/15 01:24:23;;;;;;;;;;;;;;;15.03;47.45;100893.38;5057191;28;1127;-46
2024/03/15 01:26:49;;;;;;;;;;;;;;;16.18;47.96;100900.91;5057437;28;1133;-48
2024/03/15 01:29:15;;;;;;;;;;;;;;;15.91;47.73;100901.81;5057502;28;876;-47
2024/03/15 01:31:40;;;;;;;;;;;;;;;15.32;47.99;100901.22;5057368;28;1079;-43
2024/03/15 01:34:06;;;;;;;;;;;;;;;15.11;47.04;100908.78;5056525;28;1167;-47
2024/03/15 01:36:32;;;;;;;;;;;;;;;16.40;47.53;100904.72;5057600;28;1906;-45
2024/03/15 01:38:57;;;;;;;;;;;;;;;15.81;47.91;100912.19;5057074;28;1074;-47
2024/03/15 01:41:23;;;;;;;;;;;;;;;15.24;47.69;100912.34;5056956;28;1102;-44
2024/03/15 01:43:48;;;;;;;;;;;;;;;16.46;47.60;100906.09;5057436;28;1047;-48
2024/03/15 01:46:14;;;;;;;;;;;;;;;15.65;47.98;100904.41;5056691;28;1094;-48
2024/03/15 01:48:40;;;;;;;;;;;;;;;15.37;47.47;100903.56;5056931;28;1074;-47
2024/03/15 01:51:06;;;;;;;;;;;;;;;15.13;46.72;100905.06;5057325;28;1110;-44
2024/03/15 01:53:32;;;;;;;;;;;;;;;16.32;47.48;100913.22;5056925;28;1421;-45
2024/03/15 01:55:57;;;;;;;;;;;;;;;15.40;48.25;100904.22;5056354;28;1909;-46
2024/03/15 01:58:24;;;;;;;;;;;;;;;15.12;47.24;100907.81;5055978;28;1035;-51
2024/03/15 02:00:50;;;;;;;;;;;;;;;14.91;47.07;100905.59;5056583;28;1165;-42
2024/03/15 02:03:16;;;;;;;;;;;;;;;15.21;47.60;100904.59;5055454;28;1400;-48
2024/03/15 02:05:43;;;;;;;;;;;;;;;16.85;46.09;100903.41;5056360;28;1091;-47
2024/03/15 02:08:08;;;;;;;;;;;;;;;15.40;48.11;100908.66;5056922;28;1114;-46
2024/03/15 02:10:34;;;;;;;;;;;;;;;15.05;47.56;100902.06;5056554;28;1071;-50
2024/03/15 02:13:01;;;;;;;;;;;;;;;14.93;47.17;100907.19;5056716;28;1115;-46
2024/03/15 02:15:27;;;;;;;;;;;;;;;15.85;47.54;100903.06;5056369;28;1071;-46
2024/03/15 02:17:53;;;;;;;;;;;;;;;15.47;48.16;100901.16;5056460;28;1953;-51
2024/03/15 02:20:22;;;;;;;;;;;;;;;15.03;47.58;100899.50;5056562;28;1067;-46
2024/03/15 02:22:47;;;;;;;;;;;;;;;16.67;46.84;100910.84;5056729;28;1118;-48
2024/03/15 02:25:13;;;;;;;;;;;;;;;15.67;47.50;100907.81;5055786;28;1075;-43
2024/03/15 02:27:38;;;;;;;;;;;;;;;15.09;47.55;100906.22;5056086;28;1135;-47
2024/03/15 02:30:06;;;;;;;;;;;;;;;15.44;48.48;100918.13;5056649;28;1110;-49
2024/03/15 02:32:32;;;;;;;;;;;;;;;17.18;45.69;100925.88;5055829;28;1086;-47
2024/03/15 02:34:58;;;;;;;;;;;;;;;15.60;47.93;100922.44;5053787;28;1224;-46
2024/03/15 02:37:24;;;;;;;;;;;;;;;15.20;47.82;100918.75;5044201;28;1959;-45
2024/03/15 02:39:51;;;;;;;;;;;;;;;15.57;48.38;100923.47;5055925;28;1165;-46
2024/03/15 02:42:17;;;;;;;;;;;;;;;16.47;47.10;100919.25;5047741;28;1223;-47
2024/03/15 02:44:43;;;;;;;;;;;;;;;15.46;47.65;100921.53;5037206;28;1222;-47
2024/03/15 02:47:08;;;;;;;;;;;;;;;15.10;47.81;100915.03;5042280;28;1103;-47
2024/03/15 02:49:34;;;;;;;;;;;;;;;16.59;47.35;100914.03;5055563;28;1070;-44
2024/03/15 02:52:00;;;;;;;;;;;;;;;15.63;48.08;100914.28;5056019;28;1090;-47
2024/03/15 02:54:28;;;;;;;;;;;;;;;15.16;47.99;100906.69;5054695;28;1486;-47
2024/03/15 02:56:54;;;;;;;;;;;;;;;16.20;47.82;100914.09;5043564;28;1902;-48
2024/03/15 02:59:20;;;;;;;;;;;;;;;15.64;48.25;100908.88;5055854;28;1094;-46
2024/03/15 03:01:46;;;;;;;;;;;;;;;15.18;47.84;100910.91;5055615;28;1071;-50
2024/03/15 03:04:14;;;;;;;;;;;;;;;15.00;46.94;100901.50;5055371;28;1204;-49
2024/03/15 03:06:42;;;;;;;;;;;;;;;14.87;46.22;100910.22;5055486;28;1133;-46
2024/03/15 03:09:09;;;;;;;;;;;;;;;15.75;47.57;100910.78;5056406;28;1082;-46
2024/03/15 03:11:36;;;;;;;;;;;;;;;15.96;47.34;100910.31;5059538;28;856;-49
2024/03/15 03:14:02;;;;;;;;;;;;;;;15.20;48.10;100908.16;5057946;28;1058;-48
2024/03/15 03:16:33;;;;;;;;;;;;;;;14.97;47.35;100910.50;5048949;28;1905;-45
2024/03/15 03:19:00;;;;;;;;;;;;;;;16.68;46.92;100912.56;5046382;28;1121;-46
2024/03/15 03:21:26;;;;;;;;;;;;;;;15.84;47.46;100921.75;5050309;28;1549;-46
2024/03/15 03:23:53;;;;;;;;;;;;;;;15.23;48.09;100917.75;5049455;28;1079;-47
2024/03/15 03:26:19;;;;;;;;;;;;;;;14.97;47.41;100920.25;5059375;28;1138;-48
2024/03/15 03:28:45;;;;;;;;;;;;;;;14.90;46.33;100920.63;5056166;28;1090;-43
2024/03/15 03:31:10;;;;;;;;;;;;;;;15.57;47.66;100918.16;5048471;28;1063;-46
2024/03/15 03:33:36;;;;;;;;;;;;;;;16.44;46.97;100929.25;5046390;28;1134;-45
2024/03/15 03:36:01;;;;;;;;;;;;;;;15.29;48.41;100928.78;5057557;28;1961;-46
2024/03/15 03:38:27;;;;;;;;;;;;;;;15.05;47.38;100929.41;5058799;28;1165;-47
2024/03/15 03:40:52;;;;;;;;;;;;;;;16.49;47.34;100938.59;5059480;28;1074;-47
2024/03/15 03:43:18;;;;;;;;;;;;;;;15.59;47.93;100933.97;5059054;28;1062;-47
2024/03/15 03:45:46;;;;;;;;;;;;;;;15.11;48.00;100936.13;5058965;28;1051;-45
2024/03/15 03:48:13;;;;;;;;;;;;;;;15.02;46.84;100945.50;5050421;28;1062;-45
2024/03/15 03:50:39;;;;;;;;;;;;;;;16.22;47.66;100946.66;5058980;28;1134;-48
2024/03/15 03:53:04;;;;;;;;;;;;;;;15.43;47.91;100945.59;5058813;28;1142;-47
2024/03/15 03:55:31;;;;;;;;;;;;;;;14.97;47.45;100944.94;5059269;28;1134;-45
2024/03/15 03:57:57;;;;;;;;;;;;;;;16.68;46.71;100950.59;5058731;28;1917;-45
2024/03/15 04:00:23;;;;;;;;;;;;;;;15.47;47.52;100952.41;5055338;28;943;-44
2024/03/15 04:02:50;;;;;;;;;;;;;;;15.38;48.54;100958.31;5042755;28;1047;-47
2024/03/15 04:05:16;;;;;;;;;;;;;;;16.50;46.71;100956.22;5048717;28;1072;-45
2024/03/15 04:07:42;;;;;;;;;;;;;;;15.40;47.84;100946.63;5058722;28;1103;-50
2024/03/15 04:10:07;;;;;;;;;;;;;;;15.07;47.10;100953.16;5058690;28;1039;-44
2024/03/15 04:12:33;;;;;;;;;;;;;;;16.08;48.03;100947.63;5048206;28;1158;-45
2024/03/15 04:15:02;;;;;;;;;;;;;;;16.35;47.05;100954.66;5058777;28;1134;-46
2024/03/15 04:17:27;;;;;;;;;;;;;;;15.46;47.65;100956.00;5046309;28;1910;-47
2024/03/15 04:19:53;;;;;;;;;;;;;;;16.46;47.45;100964.50;5058007;28;1058;-45
2024/03/15 04:22:21;;;;;;;;;;;;;;;15.94;47.70;100959.97;5044494;28;1190;-48
2024/03/15 04:24:49;;;;;;;;;;;;;;;15.44;47.38;100960.56;5057775;28;895;-47
2024/03/15 04:27:16;;;;;;;;;;;;;;;15.20;47.04;100965.63;5058241;28;1149;-48
2024/03/15 04:29:42;;;;;;;;;;;;;;;14.99;46.91;100961.59;5044531;28;1104;-42
2024/03/15 04:32:09;;;;;;;;;;;;;;;14.89;46.29;100958.69;5058468;28;1094;-45
2024/03/15 04:34:37;;;;;;;;;;;;;;;16.24;47.57;100966.00;5045094;28;1163;-45
2024/03/15 04:37:05;;;;;;;;;;;;;;;15.90;47.51;100971.72;5050141;28;1902;-46
2024/03/15 04:39:32;;;;;;;;;;;;;;;15.20;47.65;100979.72;5044887;28;1011;-44
2024/03/15 04:41:57;;;;;;;;;;;;;;;15.01;47.45;100980.91;5058272;28;1026;-45
2024/03/15 04:44:23;;;;;;;;;;;;;;;15.12;48.05;100989.97;5028348;28;1162;-45
2024/03/15 04:46:49;;;;;;;;;;;;;;;16.76;46.37;100990.75;5052250;28;1197;-44
2024/03/15 04:49:15;;;;;;;;;;;;;;;15.50;48.01;100988.44;5049067;28;941;-44
2024/03/15 04:51:40;;;;;;;;;;;;;;;15.05;47.45;100998.28;5054021;28;1485;-46
2024/03/15 04:54:08;;;;;;;;;;;;;;;15.70;48.15;100997.78;5053115;28;1410;-44
2024/03/15 04:56:34;;;;;;;;;;;;;;;15.73;47.80;101002.03;5041211;28;1910;-46
2024/03/15 04:58:59;;;;;;;;;;;;;;;15.13;48.06;100996.97;5049446;28;2611;-44
2024/03/15 05:01:25;;;;;;;;;;;;;;;14.95;47.10;100991.03;5056577;28;882;-46
2024/03/15 05:03:51;;;;;;;;;;;;;;;15.46;48.30;100998.44;5045094;28;1048;-49
2024/03/15 05:06:16;;;;;;;;;;;;;;;16.89;45.99;101006.69;5051914;28;1299;-47
2024/03/15 05:08:42;;;;;;;;;;;;;;;15.45;48.18;100993.22;5047892;28;1312;-49
2024/03/15 05:11:07;;;;;;;;;;;;;;;16.48;46.37;101003.28;5053275;28;963;-46
2024/03/15 05:13:33;;;;;;;;;;;;;;;16.47;45.97;100998.06;5045383;28;1497;-48
2024/03/15 05:15:59;;;;;;;;;;;;;;;16.02;46.87;100999.28;5053298;28;1076;-49
2024/03/15 05:18:25;;;;;;;;;;;;;;;15.77;47.62;101000.88;5054039;28;1902;-46
2024/03/15 05:20:50;;;;;;;;;;;;;;;15.50;47.76;101007.88;5043907;28;936;-47
2024/03/15 05:23:17;;;;;;;;;;;;;;;15.42;48.32;101005.72;5041817;28;990;-45
2024/03/15 05:25:43;;;;;;;;;;;;;;;15.26;48.69;101012.94;5054164;28;895;-49
2024/03/15 05:28:08;;;;;;;;;;;;;;;15.14;48.61;101002.19;5035643;28;1004;-50
2024/03/15 05:30:34;;;;;;;;;;;;;;;15.64;47.83;101017.59;5020455;28;1031;-43
2024/03/15 05:33:00;;;;;;;;;;;;;;;17.09;44.43;101016.88;5043385;28;1182;-48
2024/03/15 05:35:25;;;;;;;;;;;;;;;16.54;45.12;101015.28;5054019;28;1159;-47
2024/03/15 05:37:51;;;;;;;;;;;;;;;15.89;46.69;101008.03;5062220;28;1953;-50
2024/03/15 05:40:18;;;;;;;;;;;;;;;15.47;48.04;101012.50;5057109;28;1082;-48
2024/03/15 05:42:43;;;;;;;;;;;;;;;15.29;48.40;101013.63;5060752;28;1063;-48
2024/03/15 05:45:09;;;;;;;;;;;;;;;15.25;48.43;101009.44;5061557;28;1135;-42
2024/03/15 05:47:35;;;;;;;;;;;;;;;16.78;44.96;101009.25;5065415;28;1253;-44
2024/03/15 05:50:04;;;;;;;;;;;;;;;16.71;44.72;101008.81;5059370;28;1075;-46
2024/03/15 05:52:32;;;;;;;;;;;;;;;16.01;46.20;101006.41;5064692;28;1170;-50
2024/03/15 05:54:59;;;;;;;;;;;;;;;15.65;47.19;101007.81;5056439;28;1090;-50
2024/03/15 05:57:26;;;;;;;;;;;;;;;15.34;47.84;101013.31;5056597;28;1980;-46
2024/03/15 05:59:52;;;;;;;;;;;;;;;16.08;46.86;101006.00;5056597;28;1206;-49
2024/03/15 06:02:20;;;;;;;;;;;;;;;17.32;43.74;101015.25;5056484;28;1252;-53
2024/03/15 06:04:45;;;;;;;;;;;;;;;16.51;45.26;101019.03;5053057;28;1139;-49
2024/03/15 06:07:11;;;;;;;;;;;;;;;15.94;46.79;101010.38;5056280;28;1114;-52
2024/03/15 06:09:38;;;;;;;;;;;;;;;15.57;47.42;101015.41;5056515;28;1258;-53
2024/03/15 06:12:04;;;;;;;;;;;;;;;15.39;47.66;101019.19;5048869;28;1178;-50
2024/03/15 06:14:30;;;;;;;;;;;;;;;15.67;47.61;101021.84;5048481;28;1524;-52
2024/03/15 06:16:56;;;;;;;;;;;;;;;17.09;44.36;101023.06;5065698;28;1986;-48
2024/03/15 06:19:22;;;;;;;;;;;;;;;16.71;44.87;101024.78;5048902;28;1178;-51
2024/03/15 06:21:49;;;;;;;;;;;;;;;15.99;46.69;101020.72;5068908;28;1108;-53
2024/03/15 06:24:21;;;;;;;;;;;;;;;15.73;47.42;101023.25;5061091;28;1077;-53
2024/03/15 06:26:49;;;;;;;;;;;;;;;15.42;47.83;101018.13;5063223;28;1202;-51
2024/03/15 06:29:20;;;;;;;;;;;;;;;15.70;47.63;101018.16;5055348;28;1067;-51
2024/03/15 06:31:48;;;;;;;;;;;;;;;17.20;43.93;101021.44;5046294;28;1384;-51
2024/03/15 06:34:13;;;;;;;;;;;;;;;16.75;44.66;101022.72;5042682;28;953;-53
2024/03/15 06:36:44;;;;;;;;;;;;;;;16.11;46.37;101017.25;5055007;28;1963;-51
2024/03/15 06:39:25;;;;;;;;;;;;;;;15.69;47.33;101016.44;5053704;28;1258;-48
2024/03/15 06:41:53;;;;;;;;;;;;;;;15.52;47.47;101019.25;5049832;28;1044;-53
2024/03/15 06:47:28;;;;;;;;;;;;;;;17.34;43.85;101009.81;5048914;28;1413;-49
2024/03/15 06:49:44;;;;;;;;;;;;;;;16.60;45.19;101004.25;5059953;28;1335;-45
2024/03/15 06:54:56;;;;;;;;;;;;;;;15.67;47.65;100998.84;5054436;28;1113;-51
2024/03/15 06:57:23;;;;;;;;;;;;;;;15.39;47.73;100995.31;5061673;28;1902;-52
2024/03/15 06:59:48;;;;;;;;;;;;;;;15.93;47.42;100997.22;5050922;28;1467;-52
2024/03/15 07:02:14;;;;;;;;;;;;;;;17.30;44.07;100992.41;5067796;28;1142;-51
2024/03/15 07:04:40;;;;;;;;;;;;;;;16.82;44.61;100991.25;5053732;28;1183;-50
2024/03/15 07:07:06;;;;;;;;;;;;;;;16.07;46.45;100996.31;5047359;28;1286;-50
2024/03/15 07:09:32;;;;;;;;;;;;;;;15.86;46.92;101000.28;5040925;28;1094;-51
2024/03/15 07:11:58;;;;;;;;;;;;;;;15.55;47.55;100999.63;5053331;28;1151;-49
2024/03/15 07:14:23;;;;;;;;;;;;;;;15.35;48.24;100992.97;5051845;28;920;-50
2024/03/15 07:16:49;;;;;;;;;;;;;;;16.04;47.23;101000.03;5055292;28;1895;-48
2024/03/15 07:19:15;;;;;;;;;;;;;;;17.32;43.66;100998.44;5056262;28;1110;-51
2024/03/15 07:21:42;;;;;;;;;;;;;;;16.86;44.63;101000.72;5064542;28;1028;-51
2024/03/15 07:24:07;;;;;;;;;;;;;;;16.10;46.27;100994.31;5055399;28;1194;-51
2024/03/15 07:26:34;;;;;;;;;;;;;;;15.82;47.08;100995.25;5060191;28;1072;-51
2024/03/15 07:29:00;;;;;;;;;;;;;;;15.54;47.98;100996.13;5055289;28;1122;-52
2024/03/15 07:31:26;;;;;;;;;;;;;;;15.57;48.18;100994.22;5064454;28;1047;-50
2024/03/15 07:33:52;;;;;;;;;;;;;;;17.01;44.51;101004.97;5056261;28;1107;-51
2024/03/15 07:36:20;;;;;;;;;;;;;;;17.17;43.83;100995.06;5039221;28;1973;-53
2024/03/15 07:38:47;;;;;;;;;;;;;;;16.25;46.22;100994.22;5046033;28;1317;-49
2024/03/15 07:41:13;;;;;;;;;;;;;;;15.89;47.16;100991.25;5054797;28;1092;-52
2024/03/15 07:43:39;;;;;;;;;;;;;;;15.65;47.81;100990.13;5053683;28;1206;-51
2024/03/15 07:46:05;;;;;;;;;;;;;;;15.50;47.99;100986.66;5051161;28;1119;-51
2024/03/15 07:48:31;;;;;;;;;;;;;;;16.80;45.39;100991.38;5043938;28;1569;-52
2024/03/15 07:50:56;;;;;;;;;;;;;;;17.36;43.65;100982.16;5046482;28;1345;-48
2024/03/15 07:53:22;;;;;;;;;;;;;;;16.36;45.65;100986.41;5042332;28;1078;-46
2024/03/15 07:55:48;;;;;;;;;;;;;;;15.91;47.05;100989.38;5057157;28;1031;-48
2024/03/15 07:58:14;;;;;;;;;;;;;;;15.63;47.84;100980.56;5062160;28;2004;-48
2024/03/15 08:00:41;;;;;;;;;;;;;;;15.50;47.81;100989.31;5056030;28;1186;-47
2024/03/15 08:03:07;;;;;;;;;;;;;;;15.50;48.50;100981.34;5051291;28;1243;-53
2024/03/15 08:05:33;;;;;;;;;;;;;;;17.00;44.97;100986.44;5056416;28;1123;-52
2024/03/15 08:07:59;;;;;;;;;;;;;;;17.06;44.13;100988.69;5058280;28;893;-52
2024/03/15 08:10:25;;;;;;;;;;;;;;;16.26;46.34;100978.22;5055854;28;1257;-50
2024/03/15 08:12:50;;;;;;;;;;;;;;;15.85;47.30;100979.16;5058366;28;1159;-53
2024/03/15 08:15:16;;;;;;;;;;;;;;;15.61;47.93;100988.63;5039478;28;1074;-48
2024/03/15 08:17:45;;;;;;;;;;;;;;;15.41;48.49;100982.78;5053596;28;1918;-49
2024/03/15 08:20:10;;;;;;;;;;;;;;;16.63;45.85;100992.56;5049555;28;1153;-48
2024/03/15 08:22:37;;;;;;;;;;;;;;;17.60;43.43;100985.81;5058632;28;1115;-47
2024/03/15 08:25:04;;;;;;;;;;;;;;;16.62;45.41;100988.19;5058232;28;1422;-46
2024/03/15 08:27:30;;;;;;;;;;;;;;;16.02;47.14;100984.22;5070758;28;1039;-48
2024/03/15 08:29:56;;;;;;;;;;;;;;;15.68;47.48;100978.47;5057602;28;1079;-50
2024/03/15 08:32:22;;;;;;;;;;;;;;;15.52;48.34;100982.13;5055183;28;1440;-47
2024/03/15 08:34:48;;;;;;;;;;;;;;;15.38;48.48;100977.69;5065109;28;1465;-51
2024/03/15 08:37:14;;;;;;;;;;;;;;;15.70;48.05;100979.19;5061985;28;1910;-54
2024/03/15 08:39:40;;;;;;;;;;;;;;;17.13;44.76;100983.81;5059378;28;1091;-47
2024/03/15 08:42:06;;;;;;;;;;;;;;;16.98;44.63;100975.94;5044613;28;1126;-50
2024/03/15 08:44:32;;;;;;;;;;;;;;;16.16;46.31;100983.28;5051181;28;1147;-52
2024/03/15 08:46:57;;;;;;;;;;;;;;;15.73;47.56;100976.34;5054463;28;1356;-54
2024/03/15 08:49:26;;;;;;;;;;;;;;;15.48;48.35;100974.47;5057033;28;1067;-48
2024/03/15 08:51:54;;;;;;;;;;;;;;;15.37;48.24;100970.69;5052314;28;1507;-47
2024/03/15 08:54:21;;;;;;;;;;;;;;;16.16;46.71;100977.13;5049113;28;1368;-50
2024/03/15 08:56:46;;;;;;;;;;;;;;;17.40;44.06;100974.78;5058203;28;2017;-49
2024/03/15 08:59:13;;;;;;;;;;;;;;;16.68;45.19;100973.66;5057568;28;1120;-49
2024/03/15 09:01:38;;;;;;;;;;;;;;;16.03;46.94;100972.63;5059570;28;1099;-51
2024/03/15 09:04:11;;;;;;;;;;;;;;;15.72;47.47;100972.00;5057558;28;1206;-47
2024/03/15 09:06:37;;;;;;;;;;;;;;;15.53;48.13;100977.69;5057538;28;1060;-52
2024/03/15 09:09:13;;;;;;;;;;;;;;;15.32;48.73;100977.22;5056749;28;1346;-49
2024/03/15 09:11:38;;;;;;;;;;;;;;;16.47;46.17;100969.72;5058171;28;993;-51
2024/03/15 09:14:06;;;;;;;;;;;;;;;17.47;43.48;100970.72;5057003;28;1034;-49
2024/03/15 09:16:34;;;;;;;;;;;;;;;16.40;45.88;100971.09;5051224;28;1983;-46
2024/03/15 09:18:59;;;;;;;;;;;;;;;15.90;47.30;100963.75;5060781;28;1077;-51
2024/03/15 09:21:25;;;;;;;;;;;;;;;15.63;47.72;100965.50;5058006;28;1155;-51
2024/03/15 09:23:50;;;;;;;;;;;;;;;15.48;48.25;100964.69;5057809;28;1310;-50
2024/03/15 09:26:16;;;;;;;;;;;;;;;15.33;48.76;100960.41;5065084;28;1034;-50
2024/03/15 09:28:47;;;;;;;;;;;;;;;16.75;45.40;100962.47;5063092;28;1051;-53
2024/03/15 09:31:14;;;;;;;;;;;;;;;17.24;43.88;100956.44;5057203;28;1082;-48
2024/03/15 09:33:43;;;;;;;;;;;;;;;16.22;46.33;100952.81;5070199;28;1157;-50
2024/03/15 09:36:16;;;;;;;;;;;;;;;15.85;47.54;100956.13;5057399;28;1065;-52
2024/03/15 09:38:45;;;;;;;;;;;;;;;15.60;47.81;100955.09;5057188;28;1412;-51
2024/03/15 09:41:12;;;;;;;;;;;;;;;15.33;48.37;100945.31;5056982;28;1071;-53
2024/03/15 09:43:39;;;;;;;;;;;;;;;16.26;46.76;100942.84;5057052;28;1031;-55
2024/03/15 09:46:06;;;;;;;;;;;;;;;17.43;43.86;100955.13;5055821;28;1202;-53
2024/03/15 09:48:32;;;;;;;;;;;;;;;16.46;45.82;100944.13;5056699;28;1051;-51
2024/03/15 09:51:00;;;;;;;;;;;;;;;15.98;47.06;100955.31;5068879;28;1206;-52
2024/03/15 09:53:26;;;;;;;;;;;;;;;15.65;47.92;100953.00;5072231;28;1225;-53
2024/03/15 09:55:52;;;;;;;;;;;;;;;15.49;48.37;100953.16;5056913;28;1047;-53
2024/03/15 09:58:19;;;;;;;;;;;;;;;16.30;46.71;100948.81;5056487;28;1978;-51
2024/03/15 10:00:44;;;;;;;;;;;;;;;17.47;43.70;100952.13;5056341;28;1067;-54
2024/03/15 10:03:10;;;;;;;;;;;;;;;16.79;44.95;100952.50;5088472;28;1499;-50
2024/03/15 10:05:36;;;;;;;;;;;;;;;16.08;46.78;100944.97;5058018;28;1329;-53
2024/03/15 10:08:01;;;;;;;;;;;;;;;15.81;47.44;100953.78;5068138;28;1233;-53
2024/03/15 10:10:27;;;;;;;;;;;;;;;15.55;48.12;100949.22;5056557;28;1091;-52
2024/03/15 10:12:52;;;;;;;;;;;;;;;15.46;48.45;100950.72;5056446;28;1130;-53
2024/03/15 10:15:21;;;;;;;;;;;;;;;16.92;45.14;100946.28;5056277;28;1091;-55
2024/03/15 10:17:48;;;;;;;;;;;;;;;17.13;44.12;100957.25;5059707;28;1910;-53
2024/03/15 10:20:18;;;;;;;;;;;;;;;16.23;46.46;100949.19;5083950;28;1144;-52
2024/03/15 10:22:44;;;;;;;;;;;;;;;15.83;47.16;100949.22;5050532;28;1281;-52
2024/03/15 10:25:13;;;;;;;;;;;;;;;15.54;47.94;100956.34;5051117;28;1266;-54
2024/03/15 10:27:39;;;;;;;;;;;;;;;15.38;48.58;100948.53;5054280;28;1413;-53
2024/03/15 10:30:07;;;;;;;;;;;;;;;16.69;45.71;100964.72;5055928;28;885;-50
2024/03/15 10:32:33;;;;;;;;;;;;;;;17.31;43.85;100954.19;5054225;28;1189;-53
2024/03/15 10:34:58;;;;;;;;;;;;;;;16.31;46.16;100950.50;5056216;28;1226;-55
2024/03/15 10:37:24;;;;;;;;;;;;;;;15.89;47.34;100957.63;5054783;28;2008;-55
2024/03/15 10:39:50;;;;;;;;;;;;;;;15.63;47.71;100962.00;5054326;28;1580;-53
2024/03/15 10:42:16;;;;;;;;;;;;;;;15.41;48.42;100956.28;5055865;28;1131;-55
2024/03/15 10:44:42;;;;;;;;;;;;;;;15.90;47.51;100961.97;5054087;28;1256;-55
2024/03/15 10:47:08;;;;;;;;;;;;;;;17.28;44.34;100957.94;5064635;28;908;-52
2024/03/15 10:49:34;;;;;;;;;;;;;;;17.09;44.25;100961.94;5054870;28;1108;-55
2024/03/15 10:51:59;;;;;;;;;;;;;;;16.24;46.35;100958.03;5054395;28;904;-55
2024/03/15 10:54:25;;;;;;;;;;;;;;;15.90;47.17;100961.97;5055683;28;1078;-54
2024/03/15 10:56:50;;;;;;;;;;;;;;;15.67;47.94;100956.41;5060154;28;1902;-55
2024/03/15 10:59:16;;;;;;;;;;;;;;;15.50;48.04;100957.50;5061807;28;1121;-52
2024/03/15 11:01:42;;;;;;;;;;;;;;;16.15;46.85;100960.34;5055841;28;1128;-54
2024/03/15 11:04:17;;;;;;;;;;;;;;;17.41;43.97;100957.88;5055010;28;937;-55
2024/03/15 11:06:43;;;;;;;;;;;;;;;16.45;45.93;100957.53;5055635;28;1103;-52
2024/03/15 11:09:13;;;;;;;;;;;;;;;15.88;47.33;100958.56;5055420;28;1035;-51
2024/03/15 11:11:39;;;;;;;;;;;;;;;15.62;47.94;100958.50;5050128;28;1262;-52
2024/03/15 11:14:13;;;;;;;;;;;;;;;15.42;48.40;100951.84;5058629;28;1099;-55
2024/03/15 11:16:39;;;;;;;;;;;;;;;15.55;48.58;100959.84;5047269;28;1905;-52
2024/03/15 11:19:05;;;;;;;;;;;;;;;17.08;44.84;100956.69;5054298;28;1027;-52
2024/03/15 11:21:30;;;;;;;;;;;;;;;16.75;45.38;100962.47;5055844;28;1158;-51
2024/03/15 11:24:04;;;;;;;;;;;;;;;16.11;46.70;100952.72;5053137;28;1127;-49
2024/03/15 11:26:29;;;;;;;;;;;;;;;15.78;47.61;100955.69;5053138;28;1285;-54
2024/03/15 11:28:55;;;;;;;;;;;;;;;15.47;48.14;100951.53;5055419;28;1147;-54
2024/03/15 11:31:22;;;;;;;;;;;;;;;15.55;48.54;100950.09;5062969;28;1227;-52
2024/03/15 11:33:51;;;;;;;;;;;;;;;17.09;44.87;100956.59;5061728;28;1055;-54
2024/03/15 11:36:17;;;;;;;;;;;;;;;16.78;45.22;100961.44;5064654;28;1256;-55
2024/03/15 11:38:46;;;;;;;;;;;;;;;16.13;46.50;100956.94;5053083;28;1309;-54
2024/03/15 11:41:12;;;;;;;;;;;;;;;15.77;47.51;100956.63;5056820;28;1353;-54
2024/03/15 11:43:37;;;;;;;;;;;;;;;15.57;48.04;100952.66;5056820;28;1114;-53
2024/03/15 11:46:03;;;;;;;;;;;;;;;15.82;48.12;100955.47;5054231;28;1019;-52
2024/03/15 11:48:29;;;;;;;;;;;;;;;17.23;44.55;100955.59;5048321;28;1102;-52
2024/03/15 11:50:54;;;;;;;;;;;;;;;16.80;45.05;100969.28;5057387;28;1160;-51
2024/03/15 11:53:20;;;;;;;;;;;;;;;16.14;46.48;100957.81;5050720;28;1443;-54
2024/03/15 11:55:46;;;;;;;;;;;;;;;15.82;47.49;100955.47;5054215;28;1345;-52
2024/03/15 11:58:13;;;;;;;;;;;;;;;15.61;47.91;100954.16;5043486;28;1978;-53
2024/03/15 12:00:39;;;;;;;;;;;;;;;15.57;48.68;100955.28;5055022;28;1392;-55
2024/03/15 12:03:07;;;;;;;;;;;;;;;17.11;45.03;100956.50;5053565;28;1559;-54
2024/03/15 12:05:36;;;;;;;;;;;;;;;16.92;44.79;100964.88;5055806;28;1147;-53
2024/03/15 12:08:01;;;;;;;;;;;;;;;16.15;46.96;100960.34;5041585;28;1222;-50
2024/03/15 12:10:27;;;;;;;;;;;;;;;15.82;47.62;100969.59;5057616;28;1255;-53
2024/03/15 12:12:53;;;;;;;;;;;;;;;15.62;48.31;100960.28;5053937;28;1341;-55
2024/03/15 12:15:24;;;;;;;;;;;;;;;15.41;48.57;100968.72;5056600;28;1031;-53
2024/03/15 12:17:53;;;;;;;;;;;;;;;17.00;45.39;100968.72;5057828;28;1967;-52
2024/03/15 12:20:19;;;;;;;;;;;;;;;17.05;44.66;100967.53;5064140;28;927;-54
2024/03/15 12:22:44;;;;;;;;;;;;;;;16.30;46.44;100965.56;5055454;28;1277;-52
2024/03/15 12:25:10;;;;;;;;;;;;;;;15.89;47.42;100972.69;5042136;28;901;-51
2024/03/15 12:27:35;;;;;;;;;;;;;;;15.66;48.32;100962.63;5054546;28;1164;-53
2024/03/15 12:30:01;;;;;;;;;;;;;;;15.44;48.58;100973.81;5056855;28;1324;-55
2024/03/15 12:32:33;;;;;;;;;;;;;;;15.86;47.95;100968.44;5056999;28;1059;-54
2024/03/15 12:34:58;;;;;;;;;;;;;;;17.26;44.46;100967.84;5057920;28;1147;-54
2024/03/15 12:37:27;;;;;;;;;;;;;;;16.92;45.07;100976.38;5057706;28;1910;-51
2024/03/15 12:39:53;;;;;;;;;;;;;;;16.23;46.73;100974.91;5057588;28;1070;-52
2024/03/15 12:42:18;;;;;;;;;;;;;;;15.86;47.56;100970.25;5056300;28;1185;-57
2024/03/15 12:44:44;;;;;;;;;;;;;;;15.62;48.38;100968.25;5057778;28;1167;-54
2024/03/15 12:47:10;;;;;;;;;;;;;;;15.69;48.36;100972.22;5045551;28;1122;-54
2024/03/15 12:49:35;;;;;;;;;;;;;;;17.17;44.78;100979.97;5045073;28;1372;-54